createdAt,value
2019-04-11T00:00:39.625Z,3.07
2019-04-11T00:03:09.956Z,3.11
2019-04-11T00:05:41.247Z,3.07
2019-04-11T00:08:12.122Z,2.96
2019-04-11T00:10:47.093Z,2.92
2019-04-11T00:13:23.898Z,2.83
2019-04-11T00:15:54.996Z,2.77
2019-04-11T00:18:25.434Z,2.74
2019-04-11T00:20:58.222Z,2.78
2019-04-11T00:23:32.838Z,2.67
2019-04-11T00:26:04.966Z,2.62
2019-04-11T00:28:35.210Z,2.58
2019-04-11T00:31:06.368Z,2.55
2019-04-11T00:33:36.849Z,2.63
2019-04-11T00:36:08.344Z,2.63
2019-04-11T00:38:38.807Z,2.63
2019-04-11T00:41:09.988Z,2.65
2019-04-11T00:43:42.503Z,2.62
2019-04-11T00:46:16.162Z,2.56
2019-04-11T00:48:50.323Z,2.52
2019-04-11T00:51:23.550Z,2.52
2019-04-11T00:53:54.188Z,2.44
2019-04-11T00:56:28.333Z,2.41
2019-04-11T00:58:58.380Z,2.39
2019-04-11T01:01:29.579Z,2.37
2019-04-11T01:03:59.885Z,2.35
2019-04-11T01:06:36.514Z,2.39
2019-04-11T01:09:09.595Z,2.33
2019-04-11T01:11:40.710Z,2.30
2019-04-11T01:14:13.168Z,2.28
2019-04-11T01:16:53.699Z,2.29
2019-04-11T01:19:25.037Z,2.32
2019-04-11T01:21:57.892Z,2.21
2019-04-11T01:24:28.149Z,2.15
2019-04-11T01:26:59.325Z,2.10
2019-04-11T01:29:29.870Z,2.14
2019-04-11T01:32:06.416Z,2.17
2019-04-11T01:34:38.010Z,2.14
2019-04-11T01:37:09.250Z,2.17
2019-04-11T01:40:11.715Z,2.13
2019-04-11T01:42:43.705Z,2.12
2019-04-11T01:45:15.444Z,2.06
2019-04-11T01:48:14.041Z,2.05
2019-04-11T01:50:45.253Z,2.00
2019-04-11T01:53:15.747Z,1.99
2019-04-11T01:55:46.201Z,1.95
2019-04-11T01:58:28.894Z,1.93
2019-04-11T02:01:12.665Z,1.85
2019-04-11T02:04:11.677Z,1.82
2019-04-11T02:06:42.848Z,1.78
2019-04-11T02:09:15.833Z,1.87
2019-04-11T02:11:47.718Z,1.84
2019-04-11T02:14:20.719Z,1.78
2019-04-11T02:16:52.014Z,1.80
2019-04-11T02:19:22.318Z,1.76
2019-04-11T02:21:54.892Z,1.77
2019-04-11T02:24:41.975Z,1.73
2019-04-11T02:27:25.878Z,1.72
2019-04-11T02:29:56.590Z,1.70
2019-04-11T02:32:28.995Z,1.66
2019-04-11T02:35:01.440Z,1.67
2019-04-11T02:37:31.754Z,1.61
2019-04-11T02:40:05.344Z,1.62
2019-04-11T02:42:35.829Z,1.64
2019-04-11T02:45:22.802Z,1.70
2019-04-11T02:47:41.573Z,1.69
2019-04-11T02:50:14.932Z,1.58
2019-04-11T02:52:44.486Z,1.62
2019-04-11T02:55:17.089Z,1.60
2019-04-11T02:57:48.262Z,1.61
2019-04-11T03:00:20.558Z,1.62
2019-04-11T03:02:53.145Z,1.60
2019-04-11T03:05:34.439Z,1.56
2019-04-11T03:08:09.210Z,1.55
2019-04-11T03:10:37.774Z,1.48
2019-04-11T03:13:10.593Z,1.52
2019-04-11T03:15:56.826Z,1.60
2019-04-11T03:18:33.264Z,1.58
2019-04-11T03:21:02.820Z,1.60
2019-04-11T03:23:31.189Z,1.51
2019-04-11T03:26:03.239Z,1.60
2019-04-11T03:28:36.408Z,1.57
2019-04-11T03:31:43.930Z,1.71
2019-04-11T03:39:11.937Z,1.61
2019-04-11T03:41:38.476Z,1.59
2019-04-11T03:44:05.830Z,1.60
2019-04-11T03:46:44.943Z,1.55
2019-04-11T03:49:06.157Z,1.53
2019-04-11T03:51:30.629Z,1.56
2019-04-11T03:54:01.545Z,1.48
2019-04-11T03:56:32.994Z,1.59
2019-04-11T03:59:04.181Z,1.55
2019-04-11T04:01:37.985Z,1.50
2019-04-11T04:04:09.199Z,1.43
2019-04-11T04:06:43.248Z,1.42
2019-04-11T04:09:16.306Z,1.42
2019-04-11T04:11:46.928Z,1.42
2019-04-11T04:14:26.327Z,1.48
2019-04-11T04:17:14.840Z,1.38
2019-04-11T04:20:11.079Z,1.39
2019-04-11T04:22:58.464Z,1.45
2019-04-11T04:25:29.486Z,1.36
2019-04-11T04:28:02.971Z,1.35
2019-04-11T04:30:33.544Z,1.40
2019-04-11T04:33:04.985Z,1.35
2019-04-11T04:35:36.737Z,1.42
2019-04-11T04:38:09.403Z,1.47
2019-04-11T04:40:55.803Z,1.48
2019-04-11T04:43:16.538Z,1.47
2019-04-11T04:46:03.469Z,1.38
2019-04-11T04:48:23.056Z,1.38
2019-04-11T04:51:13.297Z,1.41
2019-04-11T04:53:45.210Z,1.40
2019-04-11T04:56:21.962Z,1.45
2019-04-11T04:58:50.753Z,1.50
2019-04-11T05:01:23.577Z,1.50
2019-04-11T05:03:54.119Z,1.48
2019-04-11T05:06:28.996Z,1.48
2019-04-11T05:09:00.041Z,1.64
2019-04-11T05:11:33.864Z,1.61
2019-04-11T05:14:07.231Z,1.66
2019-04-11T05:16:38.032Z,1.70
2019-04-11T05:19:09.704Z,1.79
2019-04-11T05:21:42.105Z,1.88
2019-04-11T05:24:12.596Z,1.93
2019-04-11T05:26:43.950Z,2.03
2019-04-11T05:29:15.280Z,2.11
2019-04-11T05:31:45.654Z,2.16
2019-04-11T05:34:16.110Z,2.24
2019-04-11T05:36:47.175Z,2.35
2019-04-11T05:39:18.551Z,2.45
2019-04-11T05:41:49.964Z,2.79
2019-04-11T05:44:21.304Z,2.92
2019-04-11T05:46:57.236Z,2.95
2019-04-11T05:49:45.094Z,3.00
2019-04-11T05:52:16.135Z,3.02
2019-04-11T05:54:52.561Z,3.74
2019-04-11T05:57:26.875Z,4.35
2019-04-11T05:59:56.245Z,4.02
2019-04-11T06:02:35.317Z,3.74
2019-04-11T06:05:15.209Z,3.64
2019-04-11T06:08:02.528Z,3.56
2019-04-11T06:10:30.600Z,3.67
2019-04-11T06:13:19.097Z,4.11
2019-04-11T06:15:51.986Z,4.58
2019-04-11T06:18:48.117Z,4.92
2019-04-11T06:21:28.300Z,4.50
2019-04-11T06:24:16.635Z,4.63
2019-04-11T06:27:24.283Z,5.03
2019-04-11T06:30:09.567Z,5.00
2019-04-11T06:33:10.182Z,4.81
2019-04-11T06:36:00.171Z,5.23
2019-04-11T06:38:49.740Z,6.50
2019-04-11T06:41:43.633Z,7.42
2019-04-11T06:44:32.087Z,8.72
2019-04-11T06:47:32.560Z,7.27
2019-04-11T06:50:15.228Z,6.00
2019-04-11T06:52:45.860Z,6.22
2019-04-11T06:55:39.606Z,6.09
2019-04-11T06:58:14.994Z,6.76
2019-04-11T07:00:53.527Z,7.96
2019-04-11T07:03:29.259Z,7.93
2019-04-11T07:06:02.842Z,7.40
2019-04-11T07:08:40.674Z,7.24
2019-04-11T07:11:12.171Z,7.61
2019-04-11T07:13:57.555Z,7.89
2019-04-11T07:16:27.915Z,8.59
2019-04-11T07:19:20.477Z,10.32
2019-04-11T07:21:53.184Z,11.80
2019-04-11T07:24:57.501Z,14.44
2019-04-11T07:27:29.778Z,16.42
2019-04-11T07:30:17.725Z,16.71
2019-04-11T07:32:48.289Z,17.28
2019-04-11T07:35:36.230Z,17.10
2019-04-11T07:38:06.911Z,16.66
2019-04-11T07:40:56.432Z,17.42
2019-04-11T07:43:39.085Z,18.58
2019-04-11T07:46:30.738Z,19.03
2019-04-11T07:49:05.950Z,19.86
2019-04-11T07:51:52.967Z,20.18
2019-04-11T07:54:25.938Z,21.68
2019-04-11T07:57:04.399Z,21.68
2019-04-11T08:00:03.885Z,22.96
2019-04-11T08:02:57.684Z,23.59
2019-04-11T08:05:46.728Z,22.82
2019-04-11T08:08:30.136Z,21.16
2019-04-11T08:11:09.493Z,21.50
2019-04-11T08:13:57.883Z,21.19
2019-04-11T08:16:46.901Z,22.60
2019-04-11T08:19:35.221Z,22.71
2019-04-11T08:22:25.198Z,23.32
2019-04-11T08:25:05.703Z,26.02
2019-04-11T08:27:49.820Z,27.83
2019-04-11T08:30:12.790Z,25.24
2019-04-11T08:33:02.504Z,24.63
2019-04-11T08:35:54.031Z,26.59
2019-04-11T08:38:26.786Z,25.88
2019-04-11T08:41:23.710Z,25.22
2019-04-11T08:43:55.252Z,26.87
2019-04-11T08:46:48.134Z,26.62
2019-04-11T08:49:32.083Z,23.31
2019-04-11T08:52:07.602Z,27.13
2019-04-11T08:54:55.793Z,28.82
2019-04-11T08:57:36.160Z,30.25
2019-04-11T09:00:26.311Z,28.23
2019-04-11T09:03:34.534Z,27.72
2019-04-11T09:06:14.725Z,27.70
2019-04-11T09:09:03.399Z,29.03
2019-04-11T09:11:41.121Z,27.87
2019-04-11T09:14:34.450Z,28.50
2019-04-11T09:17:39.077Z,30.69
2019-04-11T09:20:29.784Z,30.61
2019-04-11T09:23:03.504Z,28.57
2019-04-11T09:25:53.734Z,26.39
2019-04-11T09:28:49.602Z,26.37
2019-04-11T09:31:42.225Z,25.41
2019-04-11T09:34:52.213Z,25.12
2019-04-11T09:37:35.865Z,26.73
2019-04-11T09:40:27.925Z,24.35
2019-04-11T09:46:24.121Z,25.74
2019-04-11T09:49:13.618Z,25.74
2019-04-11T09:52:08.819Z,23.99
2019-04-11T09:54:58.874Z,24.39
2019-04-11T09:57:38.750Z,24.39
2019-04-11T10:00:28.978Z,26.07
2019-04-11T10:03:25.688Z,25.59
2019-04-11T10:06:15.874Z,24.44
2019-04-11T10:08:53.264Z,23.00
2019-04-11T10:11:46.319Z,21.47
2019-04-11T10:14:19.710Z,24.95
2019-04-11T10:17:08.666Z,26.09
2019-04-11T10:19:44.321Z,27.76
2019-04-11T10:22:49.504Z,27.67
2019-04-11T10:25:32.131Z,26.37
2019-04-11T10:28:29.486Z,27.82
2019-04-11T10:31:20.317Z,28.51
2019-04-11T10:34:19.647Z,25.96
2019-04-11T10:37:01.233Z,27.79
2019-04-11T10:39:53.717Z,23.77
2019-04-11T10:42:26.655Z,22.49
2019-04-11T10:45:12.182Z,20.08
2019-04-11T10:47:45.016Z,19.01
2019-04-11T10:50:26.739Z,17.30
2019-04-11T10:53:02.593Z,17.30
2019-04-11T10:55:44.475Z,20.37
2019-04-11T10:58:18.770Z,22.43
2019-04-11T11:01:14.318Z,23.04
2019-04-11T11:04:13.773Z,24.44
2019-04-11T11:06:48.303Z,24.91
2019-04-11T11:09:30.300Z,25.43
2019-04-11T11:12:19.047Z,26.74
2019-04-11T11:15:09.922Z,26.74
2019-04-11T11:18:42.676Z,24.19
2019-04-11T11:20:54.041Z,24.19
2019-04-11T11:23:50.793Z,22.03
2019-04-11T11:26:29.495Z,18.15
2019-04-11T11:29:18.934Z,15.46
2019-04-11T11:32:09.646Z,14.65
2019-04-11T11:34:49.251Z,14.75
2019-04-11T11:37:37.894Z,14.65
2019-04-11T11:40:25.888Z,14.34
2019-04-11T11:43:15.262Z,13.50
2019-04-11T11:46:12.089Z,13.15
2019-04-11T11:48:52.270Z,12.94
2019-04-11T11:51:35.241Z,12.73
2019-04-11T11:54:25.682Z,12.51
2019-04-11T11:56:58.257Z,12.17
2019-04-11T11:59:40.583Z,12.08
2019-04-11T12:02:40.630Z,12.36
2019-04-11T12:05:26.235Z,12.82
2019-04-11T12:08:16.550Z,12.93
2019-04-11T12:11:13.521Z,12.86
2019-04-11T12:14:15.868Z,12.32
2019-04-11T12:17:08.504Z,12.67
2019-04-11T12:19:52.898Z,12.35
2019-04-11T12:22:20.083Z,11.86
2019-04-11T12:25:12.549Z,12.36
2019-04-11T12:28:13.144Z,13.07
2019-04-11T12:30:50.145Z,13.42
2019-04-11T12:33:48.260Z,12.95
2019-04-11T12:36:24.394Z,13.29
2019-04-11T12:39:29.289Z,13.42
2019-04-11T12:42:27.444Z,12.83
2019-04-11T12:45:31.169Z,12.75
2019-04-11T12:48:02.971Z,12.75
2019-04-11T12:50:55.328Z,12.48
2019-04-11T12:53:26.998Z,11.59
2019-04-11T12:56:19.936Z,11.43
2019-04-11T12:58:54.030Z,11.92
2019-04-11T13:01:46.619Z,12.42
2019-04-11T13:04:20.734Z,12.73
2019-04-11T13:07:22.407Z,12.47
2019-04-11T13:10:15.010Z,12.66
2019-04-11T13:13:19.704Z,12.64
2019-04-11T13:15:55.238Z,12.05
2019-04-11T13:18:59.898Z,12.34
2019-04-11T13:21:41.632Z,13.00
2019-04-11T13:24:31.703Z,13.19
2019-04-11T13:27:21.037Z,12.59
2019-04-11T13:30:10.642Z,12.12
2019-04-11T13:32:55.560Z,11.85
2019-04-11T13:36:04.456Z,11.46
2019-04-11T13:38:41.462Z,11.58
2019-04-11T13:41:34.247Z,12.22
2019-04-11T13:44:14.031Z,12.39
2019-04-11T13:47:02.696Z,12.39
2019-04-11T13:50:16.242Z,12.19
2019-04-11T13:53:00.365Z,12.31
2019-04-11T13:55:33.279Z,12.11
2019-04-11T13:58:21.622Z,11.44
2019-04-11T14:00:53.764Z,11.47
2019-04-11T14:03:46.248Z,11.64
2019-04-11T14:06:31.093Z,12.17
2019-04-11T14:09:24.508Z,13.39
2019-04-11T14:11:57.821Z,13.39
2019-04-11T14:14:41.278Z,12.64
2019-04-11T14:17:21.892Z,11.76
2019-04-11T14:20:11.617Z,11.73
2019-04-11T14:23:04.064Z,11.83
2019-04-11T14:26:05.863Z,12.13
2019-04-11T14:28:41.632Z,12.01
2019-04-11T14:31:46.970Z,11.88
2019-04-11T14:34:37.745Z,12.12
2019-04-11T14:37:43.251Z,11.97
2019-04-11T14:40:36.464Z,11.94
2019-04-11T14:43:23.235Z,12.22
2019-04-11T14:46:24.394Z,12.64
2019-04-11T14:48:57.145Z,12.84
2019-04-11T14:51:54.348Z,12.62
2019-04-11T14:54:33.966Z,12.00
2019-04-11T14:57:08.867Z,11.48
2019-04-11T14:59:45.556Z,11.54
2019-04-11T15:02:36.631Z,11.80
2019-04-11T15:05:28.982Z,11.63
2019-04-11T15:07:59.995Z,11.62
2019-04-11T15:10:49.425Z,12.09
2019-04-11T15:13:23.458Z,12.68
2019-04-11T15:16:14.335Z,12.52
2019-04-11T15:18:51.076Z,11.91
2019-04-11T15:21:39.483Z,11.63
2019-04-11T15:24:10.731Z,11.35
2019-04-11T15:26:59.968Z,11.18
2019-04-11T15:29:35.852Z,11.44
2019-04-11T15:32:17.322Z,11.92
2019-04-11T15:34:59.904Z,11.91
2019-04-11T15:37:52.657Z,11.69
2019-04-11T15:40:26.276Z,11.54
2019-04-11T15:43:14.154Z,11.40
2019-04-11T15:45:52.582Z,11.10
2019-04-11T15:48:40.612Z,10.66
2019-04-11T15:51:26.806Z,10.31
2019-04-11T15:54:25.617Z,10.11
2019-04-11T15:57:20.649Z,10.11
2019-04-11T16:00:28.279Z,10.26
2019-04-11T16:03:18.414Z,10.38
2019-04-11T16:06:06.874Z,10.57
2019-04-11T16:08:45.807Z,10.52
2019-04-11T16:11:38.153Z,10.52
2019-04-11T16:14:27.487Z,10.42
2019-04-11T16:17:35.495Z,10.52
2019-04-11T16:20:18.128Z,10.72
2019-04-11T16:23:11.228Z,10.83
2019-04-11T16:25:44.980Z,11.12
2019-04-11T16:28:35.792Z,11.18
2019-04-11T16:31:10.942Z,10.73
2019-04-11T16:34:09.220Z,10.73
2019-04-11T16:37:00.012Z,10.57
2019-04-11T16:39:52.090Z,10.35
2019-04-11T16:42:46.747Z,10.10
2019-04-11T16:45:34.060Z,9.82
2019-04-11T16:48:04.449Z,9.63
2019-04-11T16:50:35.005Z,9.52
2019-04-11T16:53:05.938Z,9.44
2019-04-11T16:55:36.984Z,9.38
2019-04-11T16:58:09.988Z,9.32
2019-04-11T17:00:40.612Z,9.45
2019-04-11T17:03:11.107Z,9.45
2019-04-11T17:05:45.715Z,9.62
2019-04-11T17:08:30.209Z,9.59
2019-04-11T17:11:19.144Z,9.43
2019-04-11T17:13:49.763Z,9.15
2019-04-11T17:16:20.910Z,8.94
2019-04-11T17:18:51.539Z,8.82
2019-04-11T17:21:29.033Z,8.70
2019-04-11T17:23:59.745Z,8.61
2019-04-11T17:26:30.058Z,8.51
2019-04-11T17:29:00.487Z,8.37
2019-04-11T17:31:30.784Z,8.40
2019-04-11T17:34:02.380Z,8.29
2019-04-11T17:36:33.513Z,8.18
2019-04-11T17:39:07.627Z,8.09
2019-04-11T17:41:41.744Z,8.03
2019-04-11T17:44:12.019Z,7.98
2019-04-11T17:46:42.596Z,7.89
2019-04-11T17:49:13.173Z,7.84
2019-04-11T17:51:55.003Z,7.94
2019-04-11T17:54:15.477Z,7.90
2019-04-11T17:56:48.494Z,7.84
2019-04-11T17:59:20.523Z,7.74
2019-04-11T18:01:50.932Z,7.84
2019-04-11T18:04:23.349Z,7.78
2019-04-11T18:06:53.925Z,7.65
2019-04-11T18:09:26.656Z,7.41
2019-04-11T18:11:57.164Z,7.41
2019-04-11T18:14:30.771Z,7.38
2019-04-11T18:17:03.797Z,7.26
2019-04-11T18:19:33.858Z,7.17
2019-04-11T18:22:08.189Z,7.18
2019-04-11T18:24:40.132Z,7.17
2019-04-11T18:27:10.642Z,7.18
2019-04-11T18:29:43.082Z,7.16
2019-04-11T18:32:13.736Z,7.09
2019-04-11T18:34:47.109Z,6.98
2019-04-11T18:37:17.434Z,7.01
2019-04-11T18:39:47.993Z,6.98
2019-04-11T18:42:18.464Z,7.00
2019-04-11T18:44:48.865Z,6.97
2019-04-11T18:47:19.203Z,6.91
2019-04-11T18:49:50.998Z,6.92
2019-04-11T18:52:24.784Z,6.92
2019-04-11T18:54:55.661Z,6.86
2019-04-11T18:57:26.301Z,6.81
2019-04-11T18:59:56.655Z,6.76
2019-04-11T19:02:27.286Z,6.81
2019-04-11T19:04:57.721Z,6.71
2019-04-11T19:07:29.308Z,6.64
2019-04-11T19:09:59.868Z,6.72
2019-04-11T19:20:42.744Z,6.42
2019-04-11T19:26:07.466Z,6.34
2019-04-11T19:28:39.189Z,6.47
2019-04-11T19:31:13.001Z,6.55
2019-04-11T19:33:43.904Z,6.52
2019-04-11T19:36:14.339Z,6.48
2019-04-11T19:38:45.069Z,6.36
2019-04-11T19:41:18.146Z,6.26
2019-04-11T19:43:49.171Z,6.17
2019-04-11T19:46:20.327Z,6.17
2019-04-11T19:48:55.040Z,6.23
2019-04-11T19:51:23.824Z,6.09
2019-04-11T19:54:02.849Z,5.95
2019-04-11T19:56:36.205Z,6.10
2019-04-11T19:59:07.963Z,5.94
2019-04-11T20:01:38.453Z,5.87
2019-04-11T20:04:10.255Z,5.86
2019-04-11T20:06:40.613Z,5.83
2019-04-11T20:09:11.323Z,5.75
2019-04-11T20:11:44.943Z,5.61
2019-04-11T20:14:18.535Z,5.53
2019-04-11T20:16:51.952Z,5.47
2019-04-11T20:19:27.130Z,5.43
2019-04-11T20:21:55.197Z,5.42
2019-04-11T20:24:25.923Z,5.36
2019-04-11T20:26:56.270Z,5.36
2019-04-11T20:29:27.394Z,5.37
2019-04-11T20:31:57.999Z,5.26
2019-04-11T20:34:29.458Z,5.29
2019-04-11T20:37:00.073Z,5.27
2019-04-11T20:39:30.523Z,5.19
2019-04-11T20:42:00.994Z,5.25
2019-04-11T20:44:33.317Z,5.25
2019-04-11T20:47:03.707Z,5.19
2019-04-11T20:49:35.766Z,5.06
2019-04-11T20:52:06.232Z,4.93
2019-04-11T20:54:38.478Z,4.87
2019-04-11T20:57:11.862Z,4.80
2019-04-11T20:59:42.362Z,4.77
2019-04-11T21:02:13.008Z,4.68
2019-04-11T21:04:43.421Z,4.61
2019-04-11T21:07:13.740Z,4.60
2019-04-11T21:09:44.570Z,4.53
2019-04-11T21:12:18.124Z,4.44
2019-04-11T21:14:48.755Z,4.47
2019-04-11T21:17:21.091Z,4.42
2019-04-11T21:19:53.254Z,4.45
2019-04-11T21:22:25.457Z,4.42
2019-04-11T21:24:55.814Z,4.35
2019-04-11T21:27:28.938Z,4.34
2019-04-11T21:30:00.077Z,4.21
2019-04-11T21:32:31.799Z,4.23
2019-04-11T21:35:03.210Z,4.27
2019-04-11T21:37:33.493Z,4.24
2019-04-11T21:40:03.981Z,4.18
2019-04-11T21:42:36.740Z,4.21
2019-04-11T21:45:07.517Z,4.21
2019-04-11T21:47:39.333Z,4.14
2019-04-11T21:50:10.403Z,4.01
2019-04-11T21:52:43.464Z,3.91
2019-04-11T21:55:15.327Z,3.85
2019-04-11T21:57:48.862Z,3.75
2019-04-11T22:00:27.300Z,3.82
2019-04-11T22:03:00.008Z,3.80
2019-04-11T22:05:30.328Z,3.90
2019-04-11T22:08:03.703Z,3.98
2019-04-11T22:10:33.766Z,4.11
2019-04-11T22:13:09.817Z,4.19
2019-04-11T22:15:41.898Z,4.24
2019-04-11T22:18:15.942Z,4.33
2019-04-11T22:20:45.255Z,4.43
2019-04-11T22:23:15.234Z,4.55
2019-04-11T22:25:45.658Z,4.61
2019-04-11T22:28:17.101Z,4.84
2019-04-11T22:30:48.854Z,4.92
2019-04-11T22:33:38.134Z,4.92
2019-04-11T22:36:08.626Z,4.91
2019-04-11T22:38:40.739Z,4.92
2019-04-11T22:41:11.292Z,4.94
2019-04-11T22:43:42.102Z,4.95
2019-04-11T22:46:20.597Z,5.01
2019-04-11T22:48:44.433Z,4.98
2019-04-11T22:51:15.106Z,4.97
2019-04-11T22:53:45.709Z,5.03
2019-04-11T22:56:16.074Z,5.03
2019-04-11T22:58:46.685Z,5.04
2019-04-11T23:01:17.238Z,5.04
2019-04-11T23:03:59.626Z,5.12
2019-04-11T23:06:30.091Z,5.12
2019-04-11T23:09:01.754Z,5.13
2019-04-11T23:11:33.807Z,5.11
2019-04-11T23:14:04.270Z,5.14
2019-04-11T23:16:34.641Z,5.13
2019-04-11T23:19:06.374Z,5.16
2019-04-11T23:21:36.708Z,5.15
2019-04-11T23:24:11.998Z,5.22
2019-04-11T23:26:39.174Z,5.18
2019-04-11T23:29:11.085Z,5.22
2019-04-11T23:31:41.647Z,5.22
2019-04-11T23:34:13.466Z,5.19
2019-04-11T23:36:45.244Z,5.23
2019-04-11T23:39:17.567Z,5.25
2019-04-11T23:41:49.843Z,5.27
2019-04-11T23:44:20.940Z,5.27
2019-04-11T23:46:52.624Z,5.25
2019-04-11T23:49:25.261Z,5.25
2019-04-11T23:51:56.440Z,5.28
2019-04-11T23:54:29.184Z,5.30
2019-04-11T23:57:01.072Z,5.29
2019-04-11T23:59:32.904Z,5.30
